Maersk Barry — OYJE2 — position and weather

sailwx.info

Track history (hours):
 
Tides and Currents Weather Stations Pressure Air Temp Water Temp Dewpoint Dewpoint Depression Visibility Wind Speed Wind Dir Waves Ship Positions

Maersk Barry

Last reported at 2015-Aug-16 04:32 UTC. Time now 2015-Sep-03 19:15 UTC.
Position N 03°21' E 100°24'.
Warning: this ship's position is 18 days out of date.

Length 175 m; draft 6.7 m.

Type: Tanker. MMSI: 219127000.

Date/timePositionNaut miles runAvg speedWind from/ knotsBaromVisibWave heightAir tempDewpointWater temp
2015-Aug-16 04:32N 03°21' E 100°24'2010.0
2015-Aug-16 02:33N 03°08' E 100°40'1413.8
2015-Aug-16 01:33N 02°59' E 100°50'2713.6
2015-Aug-15 23:33N 02°44' E 101°12'2713.3
2015-Aug-15 21:34N 02°30' E 101°35'1514.5
2015-Aug-15 20:33N 02°21' E 101°47'13414.6
2015-Aug-15 11:24N 01°11' E 103°40'1213.6
2015-Aug-15 10:31N 01°12' E 103°52'4 0.2
2015-Aug-14 11:25N 01°13' E 103°56'8 8.7
2015-Aug-14 10:33N 01°12' E 103°49'2 0.2
2015-Aug-14 02:24N 01°14' E 103°49'1 0.0
2015-Aug-12 18:33N 01°14' E 103°48'2 2.1
2015-Aug-12 17:24N 01°13' E 103°50'0 0.1
2015-Aug-12 16:33N 01°13' E 103°50'6 6.1
2015-Aug-12 15:33N 01°14' E 103°55'  
Track history (hours):
 
Tides and Currents Weather Stations Pressure Air Temp Water Temp Dewpoint Dewpoint Depression Visibility Wind Speed Wind Dir Waves Ship Positions

Maersk Barry

Last reported at 2015-Aug-16 04:32 UTC. Time now 2015-Sep-03 19:15 UTC.
Position N 03°21' E 100°24'.
Warning: this ship's position is 18 days out of date.

Length 175 m; draft 6.7 m.

Type: Tanker. MMSI: 219127000.

Date/timePositionNaut miles runAvg speedWind from/ knotsBaromVisibWave heightAir tempDewpointWater temp
2015-Aug-16 04:32N 03°21' E 100°24'2010.0
2015-Aug-16 02:33N 03°08' E 100°40'1413.8
2015-Aug-16 01:33N 02°59' E 100°50'2713.6
2015-Aug-15 23:33N 02°44' E 101°12'2713.3
2015-Aug-15 21:34N 02°30' E 101°35'1514.5
2015-Aug-15 20:33N 02°21' E 101°47'13414.6
2015-Aug-15 11:24N 01°11' E 103°40'1213.6
2015-Aug-15 10:31N 01°12' E 103°52'4 0.2
2015-Aug-14 11:25N 01°13' E 103°56'8 8.7
2015-Aug-14 10:33N 01°12' E 103°49'2 0.2
2015-Aug-14 02:24N 01°14' E 103°49'1 0.0
2015-Aug-12 18:33N 01°14' E 103°48'2 2.1
2015-Aug-12 17:24N 01°13' E 103°50'0 0.1
2015-Aug-12 16:33N 01°13' E 103°50'6 6.1
2015-Aug-12 15:33N 01°14' E 103°55'  

Dump ship's entire track history